Here is the Quick Look data you requested

The Data originates at the National Weather Service, and is made available here by the UAlbany Department of Atmospheric and Environmental Sciences

Surface Observations

KFDK 190745Z AUTO 31005KT 7SM -SN CLR M01/M07 A3052 RMK AO2=
KNAK 190754Z AUTO 33010KT 10SM CLR 02/M06 A3048 RMK AO2 SLP323 T00221061 $=
KADW 190756Z AUTO 32011G19KT 10SM CLR 00/M07 A3046 RMK AO2 SLP324 T10031071 $=
KBWI 190754Z 34003KT 10SM SCT250 M01/M08 A3048 RMK AO2 SLP322 T10111078=
KDMH 190754Z AUTO 00/M09 A3048 RMK AO1 SLP320 T00001089=
KHGR 190753Z AUTO 32012KT 10SM CLR M03/M11 A3048 RMK AO2 SLP340 T10331106=
KNHK 190752Z AUTO 35012KT 10SM CLR 02/M06 A3047 RMK AO2 SLP319 T00171056 $=
KOXB 190753Z AUTO 33009KT 10SM CLR 01/M06 A3046 RMK AO2 SLP313 T00061061=
KSBY 190754Z AUTO 32008KT 10SM CLR 00/M06 A3046 RMK AO2 SLP317 T00001056 $=